עמוד ראשי
METAR-TAF:

METAR-TAF

שדות תעופה :

Juanjuí, פרו

קו רוחב: 07-10-10S, קו אורך: 076-43-45W, גובה: 350מטר

תצפית מזג אוויר נוכחית

הדו"ח נערך לפני 6 שעות ו 34דקות, בשעה 19:00 UTC
רוח 8קשר מכיוון דרום/דרום-מזרח
טמפרטורת 33 צלסיוס
לחות 56%
לחץ 1021 hPa
ראות: 2000מטר
מעונן בגובה 800רגל
גשם כבד

METAR: SPJI 201900Z 16008KT 2000 +RA OVC008 33/23 Q1021 RMK PP120

זמן: 20:34 (01:34 UTC)

תחזית

הדו"ח נערך לפני 5 שעות ו 38דקות, בשעה 19:56 UTC
תחזית בתוקף מ 20 ב 19 UTC עד 21 ב 18 UTC
רוח 5קשר מכיוון דרום/דרום-מזרח
ראות 10 קילומטר או יותר
עננים פזורים בגובה 1500רגל
עננים בינוניים בגובה 10000רגל
זמנית מ -
20 ב 19 UTC עד 20 ב 21 UTC
ראות: 2000מטר
עננים בינוניים בגובה 800רגל
ממטרי גשם כבדים
זמנית מ -
21 ב 12 UTC עד 21 ב 15 UTC
ראות: 4000מטר
עננים בינוניים בגובה 1000רגל
קרעי ערפל,

TAF: SPJI 201956Z 2019/2118 15005KT 9999 SCT015 BKN100 TX34/2020Z TN23/2111Z TEMPO 2019/2021 2000 +SHRA BKN008 TEMPO 2112/2115 4000 BCFG BKN010

תצפיות ותחזיות מזג אוויר לגבי יותר מ- 4,000 שדות תעופה ברחבי העולם. דוחות METAR ו- TAF.

התחנות הזמינות מסומנות בנקודות צהובות ואדומות על גבי המפה.

העבר את העכבר לנקודה הצבעונית על מנת לראות את שם התחנה.

לאחר מכן, לחץ כדי לראות את תוכן ואת תחזיות מזג האוויר.

כדי לשנות את המפה: לחץ על הכפתורים הירוקים עם הפלוס השחור כדי להתקרב; על הכפתור הירוק עם המקף כדי להתרחק; או בחיצים הירוקים למפות סמוכות.


METAR-TAF: